Flight Track Log - Related Links

Times and Time Zones

All times are in EDT time to prevent confusion due to time zone crossing. See the N525LM flight status page for this flight to view local times or setup timezone preferences in your user account.

Time Position Orientation Groundspeed Altitude Reporting Facility
EDT Latitude Longitude Course Direction KTS MPH feet Rate Location/Type
Fri 04:07:43 PM 30.1700 -97.8383 239° Southwest 286 329 6,200  Level Houston Center
Fri 04:08:43 PM 30.1381 -97.8989 316° Northwest 223 257 7,900 950 Climbing Houston Center
Fri 04:09:43 PM 30.1856 -97.9522 351° North 228 262 8,100 700 Climbing Houston Center
Fri 04:10:43 PM 30.2767 -97.9697 354° North 262 302 9,300 1,815 Climbing Houston Center
Fri 04:11:42 PM 30.3511 -97.9792 351° North 279 321 11,700 1,750 Climbing Houston Center
Fri 04:12:43 PM 30.4133 -97.9903 352° North 267 307 12,800 1,190 Climbing Houston Center
Fri 04:13:43 PM 30.4878 -98.0022 352° North 262 302 14,100 1,450 Climbing Houston Center
Fri 04:14:43 PM 30.5603 -98.0139 352° North 262 302 15,700 1,450 Climbing Houston Center
Fri 04:15:43 PM 30.6347 -98.0258 North 262 302 17,000 1,400 Climbing Houston Center
Fri 04:16:43 PM 30.7083 -98.0136 North 262 302 18,500 1,400 Climbing Houston Center
Fri 04:17:43 PM 30.7925 -97.9972 11° North 272 313 19,800 1,250 Climbing Houston Center
Fri 04:18:43 PM 30.8683 -97.9803 16° North 277 319 21,000 1,300 Climbing Houston Center
Fri 04:19:43 PM 30.9403 -97.9558 14° North 277 319 22,400 1,208 Climbing Houston Center
Fri 04:21:12 PM 31.0556 -97.9225 13° North 291 335 24,000 1,047 Climbing Fort Worth Center
Fri 04:22:12 PM 31.1331 -97.9011 15° North 291 335 25,000 1,150 Climbing Fort Worth Center
Fri 04:23:12 PM 31.2019 -97.8797 14° North 291 335 26,300 1,150 Climbing Fort Worth Center
Fri 04:24:12 PM 31.2772 -97.8581 13° North 281 323 27,300 1,050 Climbing Fort Worth Center
Fri 04:25:12 PM 31.3544 -97.8367 15° North 281 323 28,400 1,050 Climbing Fort Worth Center
Fri 04:26:12 PM 31.4297 -97.8125 13° North 281 323 29,400 1,050 Climbing Fort Worth Center
Fri 04:27:12 PM 31.5069 -97.7911 15° North 281 323 30,500 1,050 Climbing Fort Worth Center
Fri 04:28:12 PM 31.5928 -97.7644 12° North 281 323 31,500 950 Climbing Fort Worth Center
Fri 04:29:12 PM 31.6681 -97.7453 16° North 281 323 32,400 1,150 Climbing Fort Worth Center
Fri 04:30:12 PM 31.7411 -97.7211 15° North 271 312 33,800 1,050 Climbing Fort Worth Center
Fri 04:31:12 PM 31.8122 -97.6994 14° North 266 306 34,500 600 Climbing Fort Worth Center
Fri 04:32:12 PM 31.8872 -97.6775 15° North 260 299 35,000 250 Climbing Fort Worth Center
Fri 04:33:12 PM 31.9500 -97.6583 15° North 274 315 35,000  Level Fort Worth Center
Fri 04:34:12 PM 32.0503 -97.6267 15° North 301 346 35,000  Level Fort Worth Center
Fri 04:35:12 PM 32.1422 -97.5975 12° North 324 373 35,000  Level Fort Worth Center
Fri 04:36:12 PM 32.2361 -97.5731 16° North 336 387 35,000  Level Fort Worth Center
Fri 04:37:12 PM 32.3303 -97.5411 14° North 342 394 35,000  Level Fort Worth Center
Fri 04:38:12 PM 32.4283 -97.5119 13° North 359 413 35,000  Level Fort Worth Center
Fri 04:39:12 PM 32.5264 -97.4847 15° North 359 413 35,000  Level Fort Worth Center
Fri 04:40:12 PM 32.6247 -97.4528 14° North 354 407 35,000  Level Fort Worth Center
Fri 04:41:12 PM 32.7247 -97.4233 13° North 354 407 35,000  Level Fort Worth Center
Fri 04:42:12 PM 32.8144 -97.3986 12° North 354 407 35,000  Level Fort Worth Center
Fri 04:43:12 PM 32.9128 -97.3739 17° North 354 407 35,000  Level Fort Worth Center
Fri 04:44:12 PM 33.0150 -97.3367 13° North 364 419 35,000  Level Fort Worth Center
Fri 04:45:12 PM 33.1297 -97.3042 16° North 375 432 35,000  Level Fort Worth Center
Fri 04:46:12 PM 33.2258 -97.2719 14° North 370 426 35,000  Level Fort Worth Center
Fri 04:47:12 PM 33.3258 -97.2419 15° North 365 420 35,000  Level Fort Worth Center
Fri 04:48:12 PM 33.4219 -97.2119 14° North 360 414 35,000  Level Fort Worth Center
Fri 04:49:12 PM 33.5200 -97.1817 15° North 360 414 35,000  Level Fort Worth Center
Fri 04:50:12 PM 33.6242 -97.1492 14° North 362 417 35,000  Level Fort Worth Center
Fri 04:51:12 PM 33.7222 -97.1189 14° North 362 417 35,000  Level Fort Worth Center
Fri 04:52:12 PM 33.8119 -97.0911 14° North 362 417 35,000  Level Fort Worth Center
Fri 04:53:12 PM 33.9119 -97.0606 14° North 367 422 35,000  Level Fort Worth Center
Fri 04:54:12 PM 34.0142 -97.0300 18° North 372 428 35,000  Level Fort Worth Center
Fri 04:55:12 PM 34.1206 -96.9894 15° North 366 421 35,000  Level Fort Worth Center
Fri 04:56:12 PM 34.2081 -96.9614 14° North 361 415 35,000  Level Fort Worth Center
Fri 04:57:12 PM 34.3122 -96.9308 14° North 361 415 35,000  Level Fort Worth Center
Fri 04:58:12 PM 34.4122 -96.9000 15° North 361 415 35,000  Level Fort Worth Center
Fri 04:59:12 PM 34.5144 -96.8667 14° North 366 421 35,000  Level Fort Worth Center
Fri 05:00:12 PM 34.6144 -96.8356 15° North 366 421 35,000  Level Fort Worth Center
Fri 05:01:12 PM 34.7164 -96.8022 16° North 371 427 35,000  Level Fort Worth Center
Fri 05:02:12 PM 34.8144 -96.7686 14° North 371 427 35,000  Level Fort Worth Center
Fri 05:03:12 PM 34.9267 -96.7347 15° North 376 433 35,000  Level Fort Worth Center
Fri 05:04:12 PM 35.0289 -96.7011 15° North 376 433 35,000  Level Fort Worth Center
Fri 05:05:12 PM 35.1308 -96.6672 15° North 376 433 35,000  Level Fort Worth Center
Fri 05:07:30 PM 35.3622 -96.5919 16° North 382 440 35,000  Level Kansas City Center
Fri 05:08:30 PM 35.4650 -96.5564 15° North 377 434 35,000  Level Kansas City Center
Fri 05:09:30 PM 35.5678 -96.5233 14° North 377 434 35,000  Level Kansas City Center
Fri 05:10:30 PM 35.6750 -96.4903 16° North 377 434 35,000  Level Kansas City Center
Fri 05:11:30 PM 35.7778 -96.4544 14° North 377 434 35,000  Level Kansas City Center
Fri 05:12:30 PM 35.8825 -96.4211 14° North 377 434 35,000  Level Kansas City Center
Fri 05:13:30 PM 35.9978 -96.3853 15° North 377 434 35,000  Level Kansas City Center
Fri 05:14:30 PM 36.0839 -96.3567 14° North 377 434 35,000  Level Kansas City Center
Fri 05:15:30 PM 36.1972 -96.3206 16° North 377 434 35,000  Level Kansas City Center
Fri 05:16:30 PM 36.3019 -96.2844 15° North 382 440 35,000  Level Kansas City Center
Fri 05:17:30 PM 36.4067 -96.2506 15° North 382 440 35,000  Level Kansas City Center
Fri 05:18:30 PM 36.5136 -96.2144 16° North 382 440 35,000  Level Kansas City Center
Fri 05:19:31 PM 36.6164 -96.1778 14° North 377 434 35,000  Level Kansas City Center
Fri 05:20:30 PM 36.7211 -96.1464 16° North 377 434 35,000  Level Kansas City Center
Fri 05:21:30 PM 36.8261 -96.1097 15° North 377 434 35,000  Level Kansas City Center
Fri 05:22:30 PM 36.9286 -96.0753 15° North 377 434 35,000  Level Kansas City Center
Fri 05:23:30 PM 37.0333 -96.0411 16° North 377 434 35,000  Level Kansas City Center
Fri 05:24:30 PM 37.1342 -96.0042 15° North 377 434 35,000  Level Kansas City Center
Fri 05:25:30 PM 37.2389 -95.9694 14° North 377 434 35,000  Level Kansas City Center
Fri 05:26:30 PM 37.3394 -95.9375 16° North 377 434 35,000  Level Kansas City Center
Fri 05:27:30 PM 37.4442 -95.9003 15° North 377 434 35,000  Level Kansas City Center
Fri 05:28:30 PM 37.5447 -95.8656 15° North 377 434 35,000 -400 Level Kansas City Center
Fri 05:29:30 PM 37.6492 -95.8306 17° North 377 434 34,200 -1,500 Descending Kansas City Center
Fri 05:30:30 PM 37.7686 -95.7856 14° North 382 440 32,000 -2,050 Descending Kansas City Center
Fri 05:31:30 PM 37.8858 -95.7481 17° North 394 453 30,100 -1,900 Descending Kansas City Center
Fri 05:32:30 PM 37.9864 -95.7100 14° North 419 482 28,200 -1,950 Descending Kansas City Center
Fri 05:33:30 PM 38.1036 -95.6725 15° North 426 490 26,200 -2,250 Descending Kansas City Center
Fri 05:34:30 PM 38.2269 -95.6294 14° North 415 478 23,700 -2,300 Descending Kansas City Center
Fri 05:35:30 PM 38.3358 -95.5939 12° North 405 466 21,600 -2,100 Descending Kansas City Center
Fri 05:36:30 PM 38.4339 -95.5664 17° North 399 459 19,500 -2,400 Descending Kansas City Center
Fri 05:37:30 PM 38.5386 -95.5253 17° North 398 458 16,800 -2,800 Descending Kansas City Center
Fri 05:38:30 PM 38.6453 -95.4842 16° North 377 434 13,900 -2,650 Descending Kansas City Center
Fri 05:39:30 PM 38.7414 -95.4483 44° Northeast 362 417 11,500 -2,400 Descending Kansas City Center
Fri 05:40:30 PM 38.8025 -95.3717 57° Northeast 333 383 9,100 -2,300 Descending Kansas City Center
Fri 05:41:30 PM 38.8553 -95.2658 54° Northeast 319 367 6,900 -1,350 Descending Kansas City Center
Fri 05:42:30 PM 38.9039 -95.1783 53° Northeast 304 350 6,400 -450 Descending Kansas City Center
Fri 05:43:30 PM 38.9544 -95.0906 57° Northeast 309 356 6,000 -300 Descending Kansas City Center
Fri 05:44:30 PM 38.9964 -95.0081 68° East 309 356 5,800 -1,000 Descending Kansas City Center
Fri 05:45:30 PM 39.0258 -94.9122 74° East 269 310 4,000 -1,100 Descending Kansas City Center
Fri 05:46:30 PM 39.0408 -94.8453 84° East 216 249 3,600 -500 Descending Kansas City Center
Fri 05:47:30 PM 39.0450 -94.7972 77° East 164 189 3,000 -350 Descending Kansas City Center
Fri 05:48:30 PM 39.0556 -94.7386 79° East 149 171 2,900 -250 Descending Kansas City Center
Fri 05:49:30 PM 39.0639 -94.6825 78° East 149 171 2,500 -500 Descending Kansas City Center
Fri 05:50:30 PM 39.0725 -94.6317 45° Northeast 149 171 1,900 -600 Descending Kansas City Center
Fri 05:51:30 PM 39.0933 -94.6050 66° East 120 138 1,300 -350 Descending Kansas City Center
Fri 05:52:30 PM 39.1078 -94.5622 66° East 120 138 1,200 -100 Descending Kansas City Center

Login

Don't have an account? Register now (free) for customized features, flight alerts, and more!